Egg Harbor, Wisconsin
Current Conditions -  °F | °C
As of 2:15 PM on Saturday 25 Oct 2014 (Local Time) from KSUE Reporting Station
Clear Clear  
Wind Chill: 63°   Ceiling: Unl
Heat Index: 63°   Visibility: 10mi
Dew Point: 34°   Wind: 16mph
Humidity: 34%   Direction: 300°WNW
Pressure: 29.78"   Gusts: 23mph
Location:  45.05°N, 87.3°W
Report Text: KSUE 251915Z AUTO 30014G20KT 10SM CLR 17/01 A2978 RMK AO1
Loading
Personal Weather Stations






























Interactive Weather Map
Tropical Storm Tracking
New forecast layout! Learn more

10-Day Weather Forecast

Advertisements
Track Severe Weather on mobile